Time;durP1;ratioP1;P1;durP2;ratioP2;P2;SDS_P1;SDS_P2;PMS_P1;PMS_P2;Temp;Humidity;BMP_temperature;BMP_pressure;BME280_temperature;BME280_humidity;BME280_pressure;Samples;Min_cycle;Max_cycle;Signal;HPM_P1;HPM_P2
2023/03/20 00:02:22;;;;;;;;;;;19.90;86.80;;;;;;5116921;28;19912;-60
2023/03/20 00:04:47;;;;;;;;;;;19.90;86.90;;;;;;5097736;28;19919;-59
2023/03/20 00:07:13;;;;;;;;;;;19.90;86.90;;;;;;5116112;28;19945;-60
2023/03/20 00:09:38;;;;;;;;;;;19.90;87.00;;;;;;5116896;28;19912;-60
2023/03/20 00:12:04;;;;;;;;;;;19.90;87.10;;;;;;5116458;28;19951;-59
2023/03/20 00:14:30;;;;;;;;;;;19.90;87.10;;;;;;5115823;28;20329;-60
2023/03/20 00:16:55;;;;;;;;;;;20.00;87.00;;;;;;5115298;28;19954;-60
2023/03/20 00:19:22;;;;;;;;;;;20.10;86.80;;;;;;5116418;28;19908;-59
2023/03/20 00:21:48;;;;;;;;;;;20.30;86.40;;;;;;5116627;28;19908;-59
2023/03/20 00:24:14;;;;;;;;;;;20.40;86.10;;;;;;5115368;28;19938;-60
2023/03/20 00:26:40;;;;;;;;;;;20.40;86.00;;;;;;5116170;28;19998;-60
2023/03/20 00:29:06;;;;;;;;;;;20.40;86.00;;;;;;5116422;28;19912;-60
2023/03/20 00:31:37;;;;;;;;;;;20.30;86.00;;;;;;5116448;28;19913;-59
2023/03/20 00:34:10;;;;;;;;;;;20.30;86.00;;;;;;5114276;28;19919;-60
2023/03/20 00:36:36;;;;;;;;;;;20.30;86.20;;;;;;5116349;28;19915;-60
2023/03/20 00:39:01;;;;;;;;;;;20.30;86.30;;;;;;5116006;28;19998;-60
2023/03/20 00:41:28;;;;;;;;;;;20.20;86.30;;;;;;5115865;28;20006;-60
2023/03/20 00:43:55;;;;;;;;;;;20.20;86.50;;;;;;5114808;28;19919;-59
2023/03/20 00:46:21;;;;;;;;;;;20.10;86.40;;;;;;5115340;28;19912;-59
2023/03/20 00:48:47;;;;;;;;;;;20.10;86.70;;;;;;5116010;28;19916;-59
2023/03/20 00:51:12;;;;;;;;;;;20.10;86.80;;;;;;5115655;28;19912;-60
2023/03/20 00:53:38;;;;;;;;;;;20.10;86.90;;;;;;5115988;28;20248;-60
2023/03/20 00:56:04;;;;;;;;;;;20.00;86.90;;;;;;5113489;28;19916;-59
2023/03/20 00:58:29;;;;;;;;;;;20.00;87.00;;;;;;5115634;28;20337;-60
2023/03/20 01:00:55;;;;;;;;;;;19.90;86.90;;;;;;5115869;28;19914;-59
2023/03/20 01:03:22;;;;;;;;;;;19.90;87.10;;;;;;5115826;28;19914;-60
2023/03/20 01:05:48;;;;;;;;;;;19.90;87.20;;;;;;5114826;28;19919;-60
2023/03/20 01:08:21;;;;;;;;;;;19.90;87.20;;;;;;5115537;28;20286;-60
2023/03/20 01:10:49;;;;;;;;;;;19.80;87.20;;;;;;5115668;28;19972;-60
2023/03/20 01:13:22;;;;;;;;;;;19.90;87.30;;;;;;5115491;28;20018;-60
2023/03/20 01:15:49;;;;;;;;;;;19.90;87.40;;;;;;5114691;28;19919;-60
2023/03/20 01:18:15;;;;;;;;;;;20.00;87.20;;;;;;5115413;28;20006;-60
2023/03/20 01:20:41;;;;;;;;;;;20.10;87.10;;;;;;5115727;28;19908;-59
2023/03/20 01:23:07;;;;;;;;;;;20.30;86.70;;;;;;5114110;28;20411;-60
2023/03/20 01:25:32;;;;;;;;;;;20.40;86.20;;;;;;5115305;28;19908;-60
2023/03/20 01:27:58;;;;;;;;;;;20.40;85.90;;;;;;5115289;28;19964;-60
2023/03/20 01:30:25;;;;;;;;;;;20.40;85.80;;;;;;5115139;28;19957;-59
2023/03/20 01:32:50;;;;;;;;;;;20.40;85.80;;;;;;5114905;28;19919;-59
2023/03/20 01:35:18;;;;;;;;;;;20.40;85.90;;;;;;5113806;28;19912;-60
2023/03/20 01:37:44;;;;;;;;;;;20.40;85.90;;;;;;5115045;28;19954;-60
2023/03/20 01:40:15;;;;;;;;;;;20.30;85.90;;;;;;5114759;28;19994;-60
2023/03/20 01:42:41;;;;;;;;;;;20.30;80.10;;;;;;5114831;28;19915;-60
2023/03/20 01:45:18;;;;;;;;;;;20.20;84.20;;;;;;5113630;28;19912;-60
2023/03/20 01:47:43;;;;;;;;;;;20.10;85.80;;;;;;5114912;28;19947;-60
2023/03/20 01:50:25;;;;;;;;;;;20.10;86.20;;;;;;5096527;28;19943;-60
2023/03/20 01:53:12;;;;;;;;;;;20.10;86.30;;;;;;5114880;28;19935;-60
2023/03/20 01:55:39;;;;;;;;;;;20.00;86.30;;;;;;5113842;28;19915;-60
2023/03/20 01:58:06;;;;;;;;;;;20.00;86.40;;;;;;5114686;28;19908;-60
2023/03/20 02:00:33;;;;;;;;;;;20.00;86.60;;;;;;5114754;28;19930;-60
2023/03/20 02:02:59;;;;;;;;;;;19.90;86.40;;;;;;5114456;28;19998;-60
2023/03/20 02:05:25;;;;;;;;;;;19.90;86.40;;;;;;5113395;28;19955;-60
2023/03/20 02:08:09;;;;;;;;;;;19.90;86.60;;;;;;5114968;28;19930;-59
2023/03/20 02:10:35;;;;;;;;;;;19.80;86.60;;;;;;5114234;28;20405;-60
2023/03/20 02:13:02;;;;;;;;;;;19.80;86.60;;;;;;5114630;28;19912;-60
2023/03/20 02:15:29;;;;;;;;;;;19.80;86.60;;;;;;5113681;28;19908;-60
2023/03/20 02:17:54;;;;;;;;;;;19.90;86.70;;;;;;5114273;28;19956;-60
2023/03/20 02:20:32;;;;;;;;;;;19.90;86.60;;;;;;5114580;28;19908;-60
2023/03/20 02:23:18;;;;;;;;;;;20.00;86.40;;;;;;5113372;28;19915;-59
2023/03/20 02:26:02;;;;;;;;;;;20.20;86.20;;;;;;5114256;28;19915;-60
2023/03/20 02:28:46;;;;;;;;;;;20.30;85.80;;;;;;5114294;28;19908;-60
2023/03/20 02:31:31;;;;;;;;;;;20.40;86.10;;;;;;5096209;28;19912;-60
2023/03/20 02:34:16;;;;;;;;;;;20.30;85.90;;;;;;5112573;28;19908;-59
2023/03/20 02:36:50;;;;;;;;;;;20.40;85.30;;;;;;5114419;28;20385;-60
2023/03/20 02:39:16;;;;;;;;;;;20.40;85.40;;;;;;5114382;28;19955;-60
2023/03/20 02:41:48;;;;;;;;;;;20.30;85.70;;;;;;5114412;28;19919;-60
2023/03/20 02:44:32;;;;;;;;;;;20.30;85.90;;;;;;5113419;28;19916;-60
2023/03/20 02:47:01;;;;;;;;;;;20.20;86.10;;;;;;5114124;28;19907;-60
2023/03/20 02:49:45;;;;;;;;;;;20.20;86.20;;;;;;5114207;28;19960;-60
2023/03/20 02:52:46;;;;;;;;;;;20.10;86.20;;;;;;5114524;28;19957;-60
2023/03/20 02:55:21;;;;;;;;;;;20.10;86.30;;;;;;5010810;28;20004;-60
2023/03/20 02:58:05;;;;;;;;;;;20.10;86.50;;;;;;5085430;28;19962;-60
2023/03/20 03:00:37;;;;;;;;;;;20.00;86.40;;;;;;5097728;28;19908;-60
2023/03/20 03:03:07;;;;;;;;;;;20.00;86.40;;;;;;5097440;28;19909;-60
2023/03/20 03:05:36;;;;;;;;;;;19.90;86.50;;;;;;5112096;28;20008;-60
2023/03/20 03:08:03;;;;;;;;;;;19.90;86.70;;;;;;5116944;28;20350;-60
2023/03/20 03:10:35;;;;;;;;;;;19.90;86.60;;;;;;5117867;28;19911;-60
2023/03/20 03:13:02;;;;;;;;;;;19.80;86.80;;;;;;5117650;28;20378;-60
2023/03/20 03:15:30;;;;;;;;;;;19.80;86.80;;;;;;5116231;28;20246;-60
2023/03/20 03:17:57;;;;;;;;;;;19.80;86.80;;;;;;5117102;28;19912;-60
2023/03/20 03:20:24;;;;;;;;;;;19.90;86.90;;;;;;5117675;28;20060;-60
2023/03/20 03:22:50;;;;;;;;;;;19.90;86.80;;;;;;5115748;28;19919;-60
2023/03/20 03:25:15;;;;;;;;;;;20.10;87.20;;;;;;5116048;28;19911;-60
2023/03/20 03:27:46;;;;;;;;;;;20.20;86.30;;;;;;5115934;28;19954;-60
2023/03/20 03:30:12;;;;;;;;;;;20.30;85.90;;;;;;5117046;28;20366;-60
2023/03/20 03:32:44;;;;;;;;;;;20.40;85.70;;;;;;5116444;28;19919;-59
2023/03/20 03:35:14;;;;;;;;;;;20.40;85.60;;;;;;5117766;28;20044;-60
2023/03/20 03:37:42;;;;;;;;;;;20.30;85.50;;;;;;5117349;28;19908;-60
2023/03/20 03:40:14;;;;;;;;;;;20.30;85.70;;;;;;5117012;28;19991;-59
2023/03/20 03:42:46;;;;;;;;;;;20.30;85.70;;;;;;5117298;28;19908;-60
2023/03/20 03:45:13;;;;;;;;;;;20.30;85.80;;;;;;5116887;28;19912;-60
2023/03/20 03:47:49;;;;;;;;;;;20.20;85.90;;;;;;5116408;28;19912;-60
2023/03/20 03:50:16;;;;;;;;;;;20.20;86.10;;;;;;5116603;28;20362;-60
2023/03/20 03:52:43;;;;;;;;;;;20.20;86.20;;;;;;5117103;28;19911;-60
2023/03/20 03:55:14;;;;;;;;;;;20.10;86.30;;;;;;5115917;28;19912;-60
2023/03/20 03:57:41;;;;;;;;;;;20.10;86.50;;;;;;5117037;28;19908;-60
2023/03/20 04:00:10;;;;;;;;;;;20.00;86.50;;;;;;5116694;28;19908;-60
2023/03/20 04:02:36;;;;;;;;;;;20.00;86.60;;;;;;5116894;28;20003;-60
2023/03/20 04:05:04;;;;;;;;;;;20.00;86.80;;;;;;5115648;28;19912;-60
2023/03/20 04:07:30;;;;;;;;;;;19.90;86.70;;;;;;5115504;28;19939;-60
2023/03/20 04:09:55;;;;;;;;;;;19.90;86.90;;;;;;5116653;28;19974;-60
2023/03/20 04:12:33;;;;;;;;;;;19.90;87.00;;;;;;5116861;28;19912;-60
2023/03/20 04:14:58;;;;;;;;;;;19.90;87.10;;;;;;5115622;28;19957;-59
2023/03/20 04:17:24;;;;;;;;;;;19.80;87.10;;;;;;5098704;28;19913;-59
2023/03/20 04:19:49;;;;;;;;;;;19.80;87.10;;;;;;5116760;28;19908;-60
2023/03/20 04:22:15;;;;;;;;;;;19.80;87.30;;;;;;5115035;28;19923;-60
2023/03/20 04:24:40;;;;;;;;;;;19.90;87.30;;;;;;5115958;28;19912;-60
2023/03/20 04:27:06;;;;;;;;;;;20.00;87.00;;;;;;5116411;28;20323;-60
2023/03/20 04:29:31;;;;;;;;;;;20.10;86.70;;;;;;5116309;28;19963;-60
2023/03/20 04:31:58;;;;;;;;;;;20.20;86.40;;;;;;5116379;28;19919;-59
2023/03/20 04:34:24;;;;;;;;;;;20.30;86.20;;;;;;5114931;28;19961;-60
2023/03/20 04:36:49;;;;;;;;;;;20.30;86.10;;;;;;5116257;28;19954;-60
2023/03/20 04:39:15;;;;;;;;;;;20.30;86.10;;;;;;5116254;28;20384;-60
2023/03/20 04:41:41;;;;;;;;;;;20.30;86.10;;;;;;5115706;28;20321;-60
2023/03/20 04:44:06;;;;;;;;;;;20.20;86.20;;;;;;5115291;28;19912;-60
2023/03/20 04:46:32;;;;;;;;;;;20.20;86.20;;;;;;5115716;28;20472;-60
2023/03/20 04:48:57;;;;;;;;;;;20.20;86.30;;;;;;5116086;28;19918;-60
2023/03/20 04:51:23;;;;;;;;;;;20.10;86.30;;;;;;5116253;28;19912;-60
2023/03/20 04:53:48;;;;;;;;;;;20.10;86.30;;;;;;5115145;28;19935;-60
2023/03/20 04:56:14;;;;;;;;;;;20.10;86.50;;;;;;5097582;28;19912;-60
2023/03/20 04:58:39;;;;;;;;;;;20.00;86.80;;;;;;5115895;28;19908;-60
2023/03/20 05:01:05;;;;;;;;;;;20.00;87.00;;;;;;5115834;28;19908;-60
2023/03/20 05:03:30;;;;;;;;;;;20.00;87.10;;;;;;5114394;28;19912;-59
2023/03/20 05:05:56;;;;;;;;;;;19.90;86.90;;;;;;5115416;28;19908;-60
2023/03/20 05:08:21;;;;;;;;;;;19.90;87.00;;;;;;5115380;28;20312;-61
2023/03/20 05:10:47;;;;;;;;;;;19.90;87.10;;;;;;5115592;28;19934;-60
2023/03/20 05:13:12;;;;;;;;;;;19.90;87.30;;;;;;5114622;28;20392;-60
2023/03/20 05:15:37;;;;;;;;;;;19.90;87.30;;;;;;5115524;28;19959;-59
2023/03/20 05:18:03;;;;;;;;;;;19.90;87.30;;;;;;5115329;28;19965;-59
2023/03/20 05:20:29;;;;;;;;;;;19.80;87.30;;;;;;5114958;28;19907;-60
2023/03/20 05:22:54;;;;;;;;;;;19.90;87.40;;;;;;5093108;28;19912;-59
2023/03/20 05:25:19;;;;;;;;;;;20.00;87.30;;;;;;5114865;28;19999;-60
2023/03/20 05:27:45;;;;;;;;;;;20.10;87.10;;;;;;5114525;28;19920;-60
2023/03/20 05:30:12;;;;;;;;;;;20.20;86.80;;;;;;5115294;28;19912;-60
2023/03/20 05:32:37;;;;;;;;;;;20.30;86.60;;;;;;5113440;28;19915;-60
2023/03/20 05:35:03;;;;;;;;;;;20.30;86.50;;;;;;5108351;28;19919;-59
2023/03/20 05:37:29;;;;;;;;;;;20.30;86.40;;;;;;5094387;28;19912;-60
2023/03/20 05:39:54;;;;;;;;;;;20.30;86.10;;;;;;5112802;28;19919;-59
2023/03/20 05:42:20;;;;;;;;;;;20.30;86.20;;;;;;5114925;28;20379;-60
2023/03/20 05:44:45;;;;;;;;;;;20.30;86.40;;;;;;5114916;28;20369;-59
2023/03/20 05:47:11;;;;;;;;;;;20.30;86.50;;;;;;5114633;28;19911;-60
2023/03/20 05:49:36;;;;;;;;;;;20.30;86.40;;;;;;5113305;28;19951;-60
2023/03/20 05:52:01;;;;;;;;;;;20.30;86.70;;;;;;5114658;28;19912;-60
2023/03/20 05:54:27;;;;;;;;;;;20.30;86.80;;;;;;5113133;28;19912;-56
2023/03/20 05:56:52;;;;;;;;;;;20.20;86.80;;;;;;5114421;28;19962;-60
2023/03/20 05:59:18;;;;;;;;;;;20.20;86.90;;;;;;5114570;28;19915;-60
2023/03/20 06:01:43;;;;;;;;;;;20.20;86.80;;;;;;5112527;28;19916;-60
2023/03/20 06:04:09;;;;;;;;;;;20.20;86.80;;;;;;5114982;28;19908;-59
2023/03/20 06:06:36;;;;;;;;;;;20.10;86.90;;;;;;5114329;28;19908;-59
2023/03/20 06:09:05;;;;;;;;;;;20.10;87.10;;;;;;5114140;28;19916;-59
2023/03/20 06:11:31;;;;;;;;;;;20.10;87.20;;;;;;5112902;28;19920;-58
2023/03/20 06:13:57;;;;;;;;;;;20.10;86.00;;;;;;5114139;28;19908;-59
2023/03/20 06:16:22;;;;;;;;;;;20.00;87.20;;;;;;5114283;28;19908;-59
2023/03/20 06:18:48;;;;;;;;;;;20.00;87.90;;;;;;5114074;28;19912;-58
2023/03/20 06:21:13;;;;;;;;;;;20.00;87.40;;;;;;5110198;28;19939;-59
2023/03/20 06:23:39;;;;;;;;;;;19.90;87.40;;;;;;5113032;28;20374;-59
2023/03/20 06:26:05;;;;;;;;;;;19.90;87.40;;;;;;5111381;28;19934;-59
2023/03/20 06:28:31;;;;;;;;;;;19.90;88.00;;;;;;5111254;28;20342;-59
2023/03/20 06:30:56;;;;;;;;;;;19.90;87.70;;;;;;5110706;28;19920;-60
2023/03/20 06:33:22;;;;;;;;;;;19.90;87.70;;;;;;5117708;28;19955;-60
2023/03/20 06:35:48;;;;;;;;;;;19.90;88.30;;;;;;5114833;28;19935;-60
2023/03/20 06:38:13;;;;;;;;;;;19.90;82.50;;;;;;5117240;28;20022;-60
2023/03/20 06:40:39;;;;;;;;;;;19.90;85.80;;;;;;5116204;28;19920;-54
2023/03/20 06:43:04;;;;;;;;;;;20.00;87.00;;;;;;5115896;28;19916;-62
2023/03/20 06:45:30;;;;;;;;;;;20.10;85.00;;;;;;5116543;28;20286;-60
2023/03/20 06:47:56;;;;;;;;;;;20.30;86.20;;;;;;5116166;28;19912;-60
2023/03/20 06:50:21;;;;;;;;;;;20.50;85.50;;;;;;5116297;28;19920;-59
2023/03/20 06:52:47;;;;;;;;;;;20.60;85.20;;;;;;5115945;28;19915;-60
2023/03/20 06:55:12;;;;;;;;;;;20.60;85.50;;;;;;5117525;28;19911;-60
2023/03/20 06:57:38;;;;;;;;;;;20.60;85.60;;;;;;5116386;28;19918;-59
2023/03/20 07:00:04;;;;;;;;;;;20.50;85.70;;;;;;5114588;28;19923;-60
2023/03/20 07:02:30;;;;;;;;;;;20.50;85.80;;;;;;5115653;28;19916;-59
2023/03/20 07:04:56;;;;;;;;;;;20.40;85.90;;;;;;5116781;28;19931;-59
2023/03/20 07:07:21;;;;;;;;;;;20.40;86.10;;;;;;5113933;28;19945;-62
2023/03/20 07:09:47;;;;;;;;;;;20.30;86.00;;;;;;5124364;27;19907;-62
2023/03/20 07:12:13;;;;;;;;;;;20.30;86.20;;;;;;5126765;27;20006;-64
2023/03/20 07:14:40;;;;;;;;;;;20.20;86.10;;;;;;5137320;27;19910;-60
2023/03/20 07:17:07;;;;;;;;;;;20.20;86.20;;;;;;5119743;27;20004;-63
2023/03/20 07:19:33;;;;;;;;;;;20.10;86.30;;;;;;5116747;28;19907;-62
2023/03/20 07:22:03;;;;;;;;;;;20.10;86.40;;;;;;5116645;28;19914;-63
2023/03/20 07:24:28;;;;;;;;;;;20.10;86.60;;;;;;5118255;27;19914;-59
2023/03/20 07:26:54;;;;;;;;;;;20.00;86.70;;;;;;5115942;28;20374;-59
2023/03/20 07:29:20;;;;;;;;;;;20.00;86.80;;;;;;5113814;27;19960;-60
2023/03/20 07:31:45;;;;;;;;;;;20.00;86.80;;;;;;5127739;27;19916;-61
2023/03/20 07:34:11;;;;;;;;;;;20.00;86.90;;;;;;5116846;28;19919;-54
2023/03/20 07:36:37;;;;;;;;;;;19.90;86.90;;;;;;5115617;28;19915;-61
2023/03/20 07:39:02;;;;;;;;;;;20.00;87.00;;;;;;5114670;28;19912;-63
2023/03/20 07:41:28;;;;;;;;;;;20.00;87.00;;;;;;5117800;27;19924;-61
2023/03/20 07:43:53;;;;;;;;;;;20.00;86.90;;;;;;5115248;28;19957;-63
2023/03/20 07:46:19;;;;;;;;;;;20.00;86.80;;;;;;5098300;28;19908;-62
2023/03/20 07:48:44;;;;;;;;;;;20.10;86.60;;;;;;5115959;28;19912;-63
2023/03/20 07:51:10;;;;;;;;;;;20.30;86.40;;;;;;5116019;28;19918;-62
2023/03/20 07:53:35;;;;;;;;;;;20.40;86.10;;;;;;5115535;28;19912;-62
2023/03/20 07:56:01;;;;;;;;;;;20.40;85.90;;;;;;5115552;28;19915;-63
2023/03/20 07:58:27;;;;;;;;;;;20.50;85.70;;;;;;5115302;28;19918;-63
2023/03/20 08:00:52;;;;;;;;;;;20.50;85.70;;;;;;5115290;28;19908;-61
2023/03/20 08:03:18;;;;;;;;;;;20.50;85.70;;;;;;5115202;28;19915;-60
2023/03/20 08:05:43;;;;;;;;;;;20.50;85.50;;;;;;5115674;28;19916;-60
2023/03/20 08:08:09;;;;;;;;;;;20.40;85.80;;;;;;5113218;28;20007;-61
2023/03/20 08:10:34;;;;;;;;;;;20.40;86.00;;;;;;5116586;28;19919;-61
2023/03/20 08:13:00;;;;;;;;;;;20.40;86.10;;;;;;5115380;28;20289;-62
2023/03/20 08:15:25;;;;;;;;;;;20.30;86.10;;;;;;5116882;27;19911;-60
2023/03/20 08:17:50;;;;;;;;;;;20.30;86.20;;;;;;5119402;27;19908;-61
2023/03/20 08:20:16;;;;;;;;;;;20.30;86.50;;;;;;5112034;27;20385;-59
2023/03/20 08:22:43;;;;;;;;;;;20.20;86.50;;;;;;5115280;28;19912;-58
2023/03/20 08:25:09;;;;;;;;;;;20.20;86.70;;;;;;5116098;28;19908;-59
2023/03/20 08:27:35;;;;;;;;;;;20.10;86.70;;;;;;5112936;28;19915;-56
2023/03/20 08:30:01;;;;;;;;;;;20.10;86.90;;;;;;5115187;28;19977;-61
2023/03/20 08:32:26;;;;;;;;;;;20.10;87.00;;;;;;5095389;28;20339;-63
2023/03/20 08:34:53;;;;;;;;;;;20.10;87.00;;;;;;5097550;28;19912;-63
2023/03/20 08:37:19;;;;;;;;;;;20.10;87.00;;;;;;5114037;28;20362;-61
2023/03/20 08:39:45;;;;;;;;;;;20.10;87.00;;;;;;5114348;28;19919;-61
2023/03/20 08:42:10;;;;;;;;;;;20.20;86.90;;;;;;5112972;28;19991;-61
2023/03/20 08:44:36;;;;;;;;;;;20.30;86.70;;;;;;5114936;28;19912;-62
2023/03/20 08:47:02;;;;;;;;;;;20.40;86.50;;;;;;5114505;28;19914;-61
2023/03/20 08:49:27;;;;;;;;;;;20.50;86.20;;;;;;5113879;28;20366;-62
2023/03/20 08:51:53;;;;;;;;;;;20.50;86.10;;;;;;5110051;28;19915;-60
2023/03/20 08:54:18;;;;;;;;;;;20.50;86.10;;;;;;5119373;27;20312;-60
2023/03/20 08:56:44;;;;;;;;;;;20.50;86.00;;;;;;5115687;28;19918;-61
2023/03/20 08:59:10;;;;;;;;;;;20.50;86.20;;;;;;5114675;28;20404;-57
2023/03/20 09:01:36;;;;;;;;;;;20.40;86.40;;;;;;5112127;28;19912;-59
2023/03/20 09:04:02;;;;;;;;;;;20.40;86.60;;;;;;5114743;28;19960;-59
2023/03/20 09:06:27;;;;;;;;;;;20.30;86.70;;;;;;5113514;28;19916;-62
2023/03/20 09:08:53;;;;;;;;;;;20.30;86.80;;;;;;5113591;28;19908;-61
2023/03/20 09:11:18;;;;;;;;;;;20.30;86.90;;;;;;5112712;28;19922;-60
2023/03/20 09:13:44;;;;;;;;;;;20.30;86.80;;;;;;5110531;28;19916;-58
2023/03/20 09:16:09;;;;;;;;;;;20.20;87.00;;;;;;5117571;27;19914;-59
2023/03/20 09:18:35;;;;;;;;;;;20.10;87.10;;;;;;5097902;28;20292;-57
2023/03/20 09:21:00;;;;;;;;;;;20.10;87.10;;;;;;5113504;28;19908;-60
2023/03/20 09:23:26;;;;;;;;;;;20.00;87.20;;;;;;5096305;28;20219;-61
2023/03/20 09:25:51;;;;;;;;;;;20.10;87.40;;;;;;5111276;28;20259;-61
2023/03/20 09:28:17;;;;;;;;;;;20.00;87.30;;;;;;5113309;28;20377;-62
2023/03/20 09:30:42;;;;;;;;;;;20.00;87.30;;;;;;5114251;28;19911;-61
2023/03/20 09:33:08;;;;;;;;;;;20.10;87.30;;;;;;5112463;28;19918;-63
2023/03/20 09:35:33;;;;;;;;;;;20.10;87.10;;;;;;5110667;28;19912;-61
2023/03/20 09:37:59;;;;;;;;;;;20.30;87.00;;;;;;5113102;28;19919;-63
2023/03/20 09:40:43;;;;;;;;;;;20.40;86.70;;;;;;5113994;28;20342;-65
2023/03/20 09:43:24;;;;;;;;;;;20.50;86.30;;;;;;5113989;28;19956;-60
2023/03/20 09:46:08;;;;;;;;;;;20.60;86.00;;;;;;5110674;28;19973;-59
2023/03/20 09:48:33;;;;;;;;;;;20.60;85.80;;;;;;5113313;28;19992;-60
2023/03/20 09:51:17;;;;;;;;;;;20.70;85.80;;;;;;5112569;28;20080;-58
2023/03/20 09:53:46;;;;;;;;;;;20.60;85.80;;;;;;5112926;28;19922;-59
2023/03/20 09:56:17;;;;;;;;;;;20.60;86.00;;;;;;5092022;28;19927;-60
2023/03/20 09:58:47;;;;;;;;;;;20.60;86.10;;;;;;5113322;28;19911;-59
2023/03/20 10:01:13;;;;;;;;;;;20.50;86.30;;;;;;5114426;28;19989;-61
2023/03/20 10:03:42;;;;;;;;;;;20.40;86.30;;;;;;5109722;28;19911;-60
2023/03/20 10:06:12;;;;;;;;;;;20.40;86.50;;;;;;5112231;28;19990;-64
2023/03/20 10:08:37;;;;;;;;;;;20.40;86.70;;;;;;5114035;28;19907;-62
2023/03/20 10:11:15;;;;;;;;;;;20.30;86.80;;;;;;5110710;28;20023;-58
2023/03/20 10:13:54;;;;;;;;;;;20.20;86.90;;;;;;5114484;28;20003;-60
2023/03/20 10:16:35;;;;;;;;;;;20.20;87.00;;;;;;5110543;28;19912;-56
2023/03/20 10:19:06;;;;;;;;;;;20.20;87.20;;;;;;5107591;28;20269;-55
2023/03/20 10:21:38;;;;;;;;;;;20.10;84.00;;;;;;5110512;28;19918;-54
2023/03/20 10:24:04;;;;;;;;;;;20.10;84.90;;;;;;5113923;28;19908;-54
2023/03/20 10:26:32;;;;;;;;;;;20.10;86.90;;;;;;5112807;28;19912;-55
2023/03/20 10:28:59;;;;;;;;;;;20.10;87.10;;;;;;5113671;28;19907;-55
2023/03/20 10:31:30;;;;;;;;;;;20.00;87.00;;;;;;5113840;28;19918;-55
2023/03/20 10:34:02;;;;;;;;;;;20.10;86.90;;;;;;5114309;28;19908;-55
2023/03/20 10:36:31;;;;;;;;;;;20.20;86.70;;;;;;5113183;28;19961;-55
2023/03/20 10:39:02;;;;;;;;;;;20.40;86.30;;;;;;5108585;28;19920;-53
2023/03/20 10:41:31;;;;;;;;;;;20.50;85.90;;;;;;5105091;28;20514;-55
2023/03/20 10:43:57;;;;;;;;;;;20.60;83.20;;;;;;5111503;28;19916;-53
2023/03/20 10:46:28;;;;;;;;;;;20.70;84.70;;;;;;5113380;28;20419;-55
2023/03/20 10:49:01;;;;;;;;;;;20.80;84.70;;;;;;5094146;28;19912;-57
2023/03/20 10:51:53;;;;;;;;;;;20.80;84.60;;;;;;5112972;28;19919;-56
2023/03/20 10:54:42;;;;;;;;;;;20.80;84.60;;;;;;5108850;28;20355;-56
2023/03/20 10:57:14;;;;;;;;;;;20.70;84.70;;;;;;5097342;28;19912;-57
2023/03/20 10:59:41;;;;;;;;;;;20.70;84.80;;;;;;5112755;28;19926;-56
2023/03/20 11:02:13;;;;;;;;;;;20.60;84.90;;;;;;5111061;28;19920;-55
2023/03/20 11:04:39;;;;;;;;;;;20.50;85.00;;;;;;5111663;28;20342;-56
2023/03/20 11:07:05;;;;;;;;;;;20.50;85.30;;;;;;5110260;28;19937;-56
2023/03/20 11:09:31;;;;;;;;;;;20.40;85.40;;;;;;5108843;28;19916;-56
2023/03/20 11:11:58;;;;;;;;;;;20.40;85.60;;;;;;5109864;28;19923;-54
2023/03/20 11:14:25;;;;;;;;;;;20.30;84.50;;;;;;5110150;28;19912;-55
2023/03/20 11:16:51;;;;;;;;;;;20.30;85.30;;;;;;5111465;28;20014;-56
2023/03/20 11:19:19;;;;;;;;;;;20.20;85.30;;;;;;5115615;28;19911;-54
2023/03/20 11:21:49;;;;;;;;;;;20.20;85.70;;;;;;5113370;28;19924;-51
2023/03/20 11:24:35;;;;;;;;;;;20.20;85.80;;;;;;5101090;28;19916;-54
2023/03/20 11:27:17;;;;;;;;;;;20.20;85.90;;;;;;5117367;28;20350;-55
2023/03/20 11:29:45;;;;;;;;;;;20.30;85.80;;;;;;5117031;28;20004;-55
2023/03/20 11:32:30;;;;;;;;;;;20.30;85.70;;;;;;5116149;28;20293;-53
2023/03/20 11:34:56;;;;;;;;;;;20.30;85.60;;;;;;5117340;28;19914;-54
2023/03/20 11:37:24;;;;;;;;;;;20.40;85.50;;;;;;5117220;28;20263;-56
2023/03/20 11:40:03;;;;;;;;;;;20.40;85.30;;;;;;5116820;28;19912;-54
2023/03/20 11:42:29;;;;;;;;;;;20.40;85.20;;;;;;5116492;28;19920;-57
2023/03/20 11:44:59;;;;;;;;;;;20.40;85.10;;;;;;5116991;28;19918;-55
2023/03/20 11:47:25;;;;;;;;;;;20.40;85.00;;;;;;5116743;28;19934;-56
2023/03/20 11:49:58;;;;;;;;;;;20.40;85.10;;;;;;5116900;28;19912;-55
2023/03/20 11:52:27;;;;;;;;;;;20.40;85.20;;;;;;5116597;28;19915;-57
2023/03/20 11:54:55;;;;;;;;;;;20.40;85.10;;;;;;5115924;28;19912;-55
2023/03/20 11:57:36;;;;;;;;;;;20.40;85.10;;;;;;5116738;28;19954;-55
2023/03/20 12:00:15;;;;;;;;;;;20.40;85.30;;;;;;5116863;28;19930;-55
2023/03/20 12:02:40;;;;;;;;;;;20.30;85.30;;;;;;5117234;28;19907;-56
2023/03/20 12:05:24;;;;;;;;;;;20.30;85.60;;;;;;5114155;28;20285;-55
2023/03/20 12:07:51;;;;;;;;;;;20.20;85.60;;;;;;5116664;28;19912;-56
2023/03/20 12:10:18;;;;;;;;;;;20.20;85.70;;;;;;5116276;28;19918;-56
2023/03/20 12:12:58;;;;;;;;;;;20.10;85.70;;;;;;5116398;28;19912;-55
2023/03/20 12:15:25;;;;;;;;;;;20.10;85.80;;;;;;5114751;28;19919;-56
2023/03/20 12:17:57;;;;;;;;;;;20.20;85.80;;;;;;5116491;28;19951;-54
2023/03/20 12:20:27;;;;;;;;;;;20.20;85.80;;;;;;5116455;28;20208;-55
2023/03/20 12:23:19;;;;;;;;;;;20.20;85.70;;;;;;5116345;28;19914;-56
2023/03/20 12:25:51;;;;;;;;;;;20.20;85.60;;;;;;5074936;28;20282;-56
2023/03/20 12:28:21;;;;;;;;;;;20.30;85.50;;;;;;5114977;28;19934;-55
2023/03/20 12:31:03;;;;;;;;;;;20.40;85.40;;;;;;5116054;28;19920;-55
2023/03/20 12:33:47;;;;;;;;;;;20.40;85.00;;;;;;5115921;28;20013;-55
2023/03/20 12:36:17;;;;;;;;;;;20.40;85.00;;;;;;5115123;28;19943;-55
2023/03/20 12:38:43;;;;;;;;;;;20.40;84.90;;;;;;5115979;28;20354;-56
2023/03/20 12:41:12;;;;;;;;;;;20.40;84.90;;;;;;5115819;28;20355;-56
2023/03/20 12:43:56;;;;;;;;;;;20.40;84.90;;;;;;5115944;28;19912;-57
2023/03/20 12:46:27;;;;;;;;;;;20.40;85.00;;;;;;5114791;28;19965;-55
2023/03/20 12:49:16;;;;;;;;;;;20.30;85.00;;;;;;5115501;28;19933;-56
2023/03/20 12:51:51;;;;;;;;;;;20.30;85.20;;;;;;5115502;28;19912;-56
2023/03/20 12:54:18;;;;;;;;;;;20.20;85.40;;;;;;5115054;28;20566;-56
2023/03/20 12:56:56;;;;;;;;;;;20.10;85.50;;;;;;5114101;28;19961;-56
2023/03/20 12:59:40;;;;;;;;;;;20.10;85.70;;;;;;5115706;28;19907;-56
2023/03/20 13:02:20;;;;;;;;;;;20.00;85.80;;;;;;5115800;28;19915;-56
2023/03/20 13:04:51;;;;;;;;;;;20.00;86.00;;;;;;5114382;28;20000;-56
2023/03/20 13:07:24;;;;;;;;;;;20.00;86.00;;;;;;5115557;28;20258;-55
2023/03/20 13:10:07;;;;;;;;;;;19.90;86.10;;;;;;5115145;28;19997;-56
2023/03/20 13:12:38;;;;;;;;;;;19.90;86.20;;;;;;5116089;28;19971;-56
2023/03/20 13:15:23;;;;;;;;;;;19.90;86.10;;;;;;5113026;28;19916;-56
2023/03/20 13:18:20;;;;;;;;;;;20.00;85.90;;;;;;5114912;28;20374;-56
2023/03/20 13:20:49;;;;;;;;;;;20.10;85.60;;;;;;5058755;28;19907;-58
2023/03/20 13:23:20;;;;;;;;;;;20.30;85.20;;;;;;5115131;28;19907;-56
2023/03/20 13:26:04;;;;;;;;;;;20.50;84.80;;;;;;5113991;28;19939;-56
2023/03/20 13:28:49;;;;;;;;;;;20.60;84.40;;;;;;5114391;28;19918;-54
2023/03/20 13:31:41;;;;;;;;;;;20.70;84.00;;;;;;5114576;28;19923;-56
2023/03/20 13:34:18;;;;;;;;;;;20.70;84.00;;;;;;5108751;28;19908;-56
2023/03/20 13:37:02;;;;;;;;;;;20.60;84.00;;;;;;5111571;28;19970;-56
2023/03/20 13:39:28;;;;;;;;;;;20.60;84.10;;;;;;5114386;28;19912;-54
2023/03/20 13:41:53;;;;;;;;;;;20.60;84.20;;;;;;5114693;28;20363;-55
2023/03/20 13:44:21;;;;;;;;;;;20.50;84.30;;;;;;5113919;28;20298;-54
2023/03/20 13:46:54;;;;;;;;;;;20.50;84.40;;;;;;5114767;28;20261;-53
2023/03/20 13:49:28;;;;;;;;;;;20.40;84.60;;;;;;5114537;28;19919;-54
2023/03/20 13:51:59;;;;;;;;;;;20.30;84.80;;;;;;5114788;28;19932;-56
2023/03/20 13:54:37;;;;;;;;;;;20.30;84.90;;;;;;5113281;28;19911;-55
2023/03/20 13:57:09;;;;;;;;;;;20.20;84.90;;;;;;5099742;28;20010;-55
2023/03/20 13:59:35;;;;;;;;;;;20.20;85.20;;;;;;5114614;28;19907;-55
2023/03/20 14:02:03;;;;;;;;;;;20.10;85.40;;;;;;5114360;28;20275;-54
2023/03/20 14:04:29;;;;;;;;;;;20.00;85.50;;;;;;5113115;28;19957;-55
2023/03/20 14:06:56;;;;;;;;;;;20.00;85.50;;;;;;5113869;28;19908;-57
2023/03/20 14:09:35;;;;;;;;;;;20.00;85.60;;;;;;5114379;28;20048;-53
2023/03/20 14:12:10;;;;;;;;;;;20.00;85.70;;;;;;5114490;28;19912;-55
2023/03/20 14:14:45;;;;;;;;;;;20.00;85.70;;;;;;5113572;28;19935;-56
2023/03/20 14:17:10;;;;;;;;;;;20.00;85.60;;;;;;5114042;28;19907;-55
2023/03/20 14:19:36;;;;;;;;;;;20.10;85.40;;;;;;5114490;28;19908;-56
2023/03/20 14:22:02;;;;;;;;;;;20.30;85.10;;;;;;5114005;28;19914;-57
2023/03/20 14:24:28;;;;;;;;;;;20.40;84.80;;;;;;5112426;28;19998;-56
2023/03/20 14:26:55;;;;;;;;;;;20.50;84.30;;;;;;5113615;28;20007;-56
2023/03/20 14:29:30;;;;;;;;;;;20.60;83.90;;;;;;5113994;28;19915;-55